Terminal Aerodrome Forecast
Issued by NWS

Home | Current Version | Previous Version | Graphics & Text | Print | Product List | Glossary On
Versions: 1 2 3 4 5 6 7 8 9 10 11 12 13 14
748
FTUS43 KMPX 242359
TAFAXN
TAF
KAXN 242359Z 2500/2524 29010KT P6SM SCT250
     FM250200 27006KT P6SM FEW250
     FM251400 28010KT P6SM BKN100
     FM251700 29013G20KT P6SM BKN040
     FM252200 30012KT P6SM SCT050=

USA.gov is the U.S. government's official web portal to all federal, state and local government web resources and services.